Time;durP1;ratioP1;P1;durP2;ratioP2;P2;SDS_P1;SDS_P2;PMS_P1;PMS_P2;Temp;Humidity;BMP_temperature;BMP_pressure;BME280_temperature;BME280_humidity;BME280_pressure;Samples;Min_cycle;Max_cycle;Signal;HPM_P1;HPM_P2
2022/11/20 00:01:46;;;;;;;19.97;12.13;;;;;;;-0.41;100.00;100621.00;4980460;28;20348;-71
2022/11/20 00:04:13;;;;;;;17.27;10.73;;;;;;;-0.36;100.00;100619.50;4981477;28;20248;-73
2022/11/20 00:06:41;;;;;;;14.17;11.07;;;;;;;-0.21;100.00;100619.25;4980755;28;20268;-73
2022/11/20 00:09:07;;;;;;;13.60;10.70;;;;;;;-0.40;100.00;100616.72;4978145;28;20719;-72
2022/11/20 00:11:34;;;;;;;14.90;10.97;;;;;;;-0.44;100.00;100622.59;4972653;28;20327;-71
2022/11/20 00:14:02;;;;;;;12.47;10.77;;;;;;;-0.33;100.00;100609.28;4973250;28;20247;-71
2022/11/20 00:16:31;;;;;;;16.53;10.07;;;;;;;-0.44;100.00;100607.97;4980129;28;20280;-74
2022/11/20 00:18:57;;;;;;;17.33;11.00;;;;;;;-0.46;100.00;100612.19;4971771;28;20705;-72
2022/11/20 00:21:26;;;;;;;14.60;10.73;;;;;;;-0.38;100.00;100615.09;4980782;28;20877;-71
2022/11/20 00:23:56;;;;;;;15.07;11.70;;;;;;;-0.52;100.00;100612.84;4971822;28;20237;-69
2022/11/20 00:26:24;;;;;;;14.70;10.73;;;;;;;-0.56;100.00;100610.94;4981212;28;20326;-66
2022/11/20 00:28:53;;;;;;;15.20;10.37;;;;;;;-0.51;100.00;100612.00;4982092;28;20230;-65
2022/11/20 00:31:20;;;;;;;14.90;10.80;;;;;;;-0.52;100.00;100612.84;4979987;28;20263;-65
2022/11/20 00:33:47;;;;;;;16.07;10.47;;;;;;;-0.51;100.00;100608.56;4983561;28;20240;-63
2022/11/20 00:36:15;;;;;;;20.33;14.23;;;;;;;-0.53;100.00;100616.25;4974308;28;20237;-64
2022/11/20 00:38:43;;;;;;;14.07;10.57;;;;;;;-0.44;100.00;100614.84;4981260;28;20469;-62
2022/11/20 00:41:14;;;;;;;13.30;10.33;;;;;;;-0.53;100.00;100621.41;4972614;28;20230;-62
2022/11/20 00:43:41;;;;;;;14.60;10.40;;;;;;;-0.42;100.00;100613.19;4983140;28;20234;-61
2022/11/20 00:46:09;;;;;;;15.93;10.30;;;;;;;-0.45;100.00;100615.66;4977128;28;20700;-62
2022/11/20 00:48:36;;;;;;;17.93;10.93;;;;;;;-0.56;100.00;100613.53;4982265;28;20863;-61
2022/11/20 00:51:03;;;;;;;16.03;10.87;;;;;;;-0.50;100.00;100620.63;4980497;28;20267;-61
2022/11/20 00:53:30;;;;;;;14.73;11.30;;;;;;;-0.56;100.00;100612.63;4979550;28;20238;-60
2022/11/20 00:55:58;;;;;;;12.63;9.83;;;;;;;-0.45;100.00;100607.94;4981866;28;20229;-60
2022/11/20 00:58:30;;;;;;;12.07;9.67;;;;;;;-0.53;100.00;100607.59;4975675;28;20792;-61
2022/11/20 01:01:01;;;;;;;15.77;10.30;;;;;;;-0.42;100.00;100611.53;4980471;28;20241;-60
2022/11/20 01:03:29;;;;;;;12.93;9.67;;;;;;;-0.41;100.00;100618.44;4983692;28;20256;-59
2022/11/20 01:06:00;;;;;;;15.53;10.13;;;;;;;-0.59;100.00;100610.81;4975253;28;20241;-60
2022/11/20 01:08:31;;;;;;;16.17;11.00;;;;;;;-0.58;100.00;100611.69;4974528;28;20346;-60
2022/11/20 01:11:00;;;;;;;16.90;10.33;;;;;;;-0.55;100.00;100612.69;4976375;28;20232;-61
2022/11/20 01:13:41;;;;;;;12.77;9.77;;;;;;;-0.49;100.00;100618.13;4987335;28;20244;-59
2022/11/20 01:16:09;;;;;;;16.77;11.00;;;;;;;-0.43;100.00;100616.59;4979941;28;20255;-61
2022/11/20 01:18:36;;;;;;;14.00;10.47;;;;;;;-0.45;100.00;100615.66;4976069;28;20632;-58
2022/11/20 01:21:04;;;;;;;14.43;10.27;;;;;;;-0.49;100.00;100612.09;4975347;28;20241;-59
2022/11/20 01:23:35;;;;;;;12.07;10.57;;;;;;;-0.64;100.00;100607.16;4968720;28;20316;-57
2022/11/20 01:26:03;;;;;;;16.20;10.87;;;;;;;-0.55;100.00;100609.25;4977144;28;20242;-58
2022/11/20 01:28:32;;;;;;;13.30;10.20;;;;;;;-0.44;100.00;100607.97;4987220;28;20298;-58
2022/11/20 01:30:59;;;;;;;12.23;10.20;;;;;;;-0.50;100.00;100611.19;4985896;28;20977;-58
2022/11/20 01:33:26;;;;;;;14.63;11.37;;;;;;;-0.37;100.00;100603.97;4974209;28;20324;-59
2022/11/20 01:35:53;;;;;;;14.30;9.77;;;;;;;-0.43;100.00;100601.13;4982701;28;20245;-58
2022/11/20 01:38:22;;;;;;;12.90;10.83;;;;;;;-0.61;100.00;100596.97;4975653;28;20245;-58
2022/11/20 01:40:56;;;;;;;15.80;11.00;;;;;;;-0.55;100.00;100596.34;4976834;28;20260;-58
2022/11/20 01:43:22;;;;;;;15.67;11.30;;;;;;;-0.55;100.00;100601.50;4970593;28;20852;-58
2022/11/20 01:46:16;;;;;;;14.37;11.07;;;;;;;-0.42;100.00;100592.56;4977297;28;20265;-58
2022/11/20 01:48:47;;;;;;;12.50;10.03;;;;;;;-0.50;100.00;100590.56;4981999;28;20305;-58
2022/11/20 01:51:18;;;;;;;13.53;9.87;;;;;;;-0.34;100.00;100593.78;4980868;28;20226;-57
2022/11/20 01:53:46;;;;;;;13.87;10.50;;;;;;;-0.38;100.00;100594.47;4977597;28;20241;-58
2022/11/20 01:56:15;;;;;;;14.73;11.23;;;;;;;-0.56;100.00;100585.16;4974635;28;20284;-57
2022/11/20 01:58:46;;;;;;;12.67;11.30;;;;;;;-0.56;100.00;100590.31;4976985;28;20884;-57
2022/11/20 02:01:15;;;;;;;15.23;10.57;;;;;;;-0.44;100.00;100594.22;4980953;28;20701;-57
2022/11/20 02:03:43;;;;;;;14.37;10.60;;;;;;;-0.53;100.00;100584.38;4981932;28;20263;-56
2022/11/20 02:06:14;;;;;;;15.70;10.77;;;;;;;-0.42;100.00;100582.25;4979569;28;20810;-58
2022/11/20 02:08:41;;;;;;;13.23;10.80;;;;;;;-0.51;100.00;100588.78;4974889;28;20241;-58
2022/11/20 02:11:08;;;;;;;14.53;10.77;;;;;;;-0.58;100.00;100589.38;4983805;28;20244;-56
2022/11/20 02:13:43;;;;;;;15.20;10.83;;;;;;;-0.49;100.00;100582.03;4982880;28;20264;-56
2022/11/20 02:16:13;;;;;;;14.77;11.87;;;;;;;-0.61;100.00;100580.63;4977808;28;20244;-57
2022/11/20 02:18:42;;;;;;;14.30;10.43;;;;;;;-0.62;100.00;100578.88;4979360;28;20230;-57
2022/11/20 02:21:14;;;;;;;14.80;10.67;;;;;;;-0.55;100.00;100576.59;4976635;28;20274;-57
2022/11/20 02:23:56;;;;;;;12.73;10.37;;;;;;;-0.60;100.00;100572.94;4983810;28;20245;-57
2022/11/20 02:26:23;;;;;;;14.83;10.87;;;;;;;-0.50;100.00;100574.19;4977566;28;20873;-57
2022/11/20 02:28:51;;;;;;;14.70;11.53;;;;;;;-0.54;100.00;100577.47;4983953;28;20233;-57
2022/11/20 02:31:17;;;;;;;15.00;11.50;;;;;;;-0.62;100.00;100573.72;4981348;28;20233;-57
2022/11/20 02:33:45;;;;;;;13.93;11.20;;;;;;;-0.59;100.00;100572.16;4983192;28;20241;-56
2022/11/20 02:36:15;;;;;;;14.93;12.07;;;;;;;-0.61;100.00;100576.34;4977325;28;20244;-57
2022/11/20 02:38:42;;;;;;;15.17;11.67;;;;;;;-0.63;100.00;100567.69;4979337;28;20237;-56
2022/11/20 02:41:11;;;;;;;17.27;12.63;;;;;;;-0.62;100.00;100569.44;4974627;28;20238;-56
2022/11/20 02:43:38;;;;;;;15.27;12.30;;;;;;;-0.70;100.00;100570.81;4974711;28;20299;-56
2022/11/20 02:46:08;;;;;;;14.47;11.67;;;;;;;-0.73;100.00;100571.56;4980407;28;20291;-56
2022/11/20 02:48:35;;;;;;;18.13;11.33;;;;;;;-0.63;100.00;100572.84;4983104;28;20257;-55
2022/11/20 02:51:02;;;;;;;13.73;10.77;;;;;;;-0.67;100.00;100570.94;4983489;28;20833;-56
2022/11/20 02:53:29;;;;;;;14.87;12.13;;;;;;;-0.78;100.00;100573.06;4976842;28;20242;-57
2022/11/20 02:55:56;;;;;;;14.97;12.53;;;;;;;-0.76;100.00;100571.44;4970410;28;20320;-55
2022/11/20 02:58:24;;;;;;;15.37;11.17;;;;;;;-0.65;100.00;100574.47;4973529;28;20574;-57
2022/11/20 03:00:51;;;;;;;13.77;11.70;;;;;;;-0.69;100.00;100567.41;4982943;28;20233;-56
2022/11/20 03:03:18;;;;;;;20.20;12.47;;;;;;;-0.67;100.00;100568.34;4983128;28;20784;-58
2022/11/20 03:05:45;;;;;;;14.30;11.53;;;;;;;-0.66;100.00;100572.72;4982741;28;20249;-56
2022/11/20 03:08:12;;;;;;;14.93;11.43;;;;;;;-0.60;100.00;100562.63;4976293;28;20234;-57
2022/11/20 03:10:39;;;;;;;13.10;10.67;;;;;;;-0.72;100.00;100562.13;4981394;28;20238;-56
2022/11/20 03:13:06;;;;;;;17.90;12.03;;;;;;;-0.64;100.00;100565.03;4981577;28;20251;-56
2022/11/20 03:15:36;;;;;;;18.47;12.43;;;;;;;-0.78;100.00;100564.44;4979563;28;20230;-57
2022/11/20 03:18:03;;;;;;;18.50;13.30;;;;;;;-0.69;100.00;100564.84;4977753;28;20295;-57
2022/11/20 03:20:30;;;;;;;17.57;12.87;;;;;;;-0.70;100.00;100557.03;4982170;28;20240;-56
2022/11/20 03:22:57;;;;;;;15.47;12.37;;;;;;;-0.69;100.00;100557.13;4983918;28;20711;-56
2022/11/20 03:25:24;;;;;;;16.40;11.60;;;;;;;-0.68;100.00;100556.28;4981002;28;20245;-56
2022/11/20 03:27:51;;;;;;;19.17;12.43;;;;;;;-0.66;100.00;100553.78;4979278;28;20236;-56
2022/11/20 03:30:18;;;;;;;16.00;11.23;;;;;;;-0.61;100.00;100555.72;4974782;28;20733;-59
2022/11/20 03:32:46;;;;;;;14.30;11.37;;;;;;;-0.55;100.00;100550.81;4976438;28;20914;-57
2022/11/20 03:35:13;;;;;;;15.83;11.97;;;;;;;-0.67;100.00;100547.72;4967981;28;20237;-56
2022/11/20 03:37:40;;;;;;;16.00;12.37;;;;;;;-0.56;100.00;100555.91;4978133;28;20680;-56
2022/11/20 03:40:08;;;;;;;17.60;12.80;;;;;;;-0.65;100.00;100550.38;4974173;28;20241;-56
2022/11/20 03:42:46;;;;;;;13.87;11.23;;;;;;;-0.65;100.00;100543.53;4979673;28;20256;-56
2022/11/20 03:45:14;;;;;;;15.17;10.93;;;;;;;-0.65;100.00;100538.38;4969132;28;20236;-56
2022/11/20 03:47:41;;;;;;;14.83;10.83;;;;;;;-0.59;100.00;100538.63;4970933;28;20234;-57
2022/11/20 03:50:11;;;;;;;15.53;10.80;;;;;;;-0.52;100.00;100545.78;4970054;28;20234;-55
2022/11/20 03:52:38;;;;;;;13.30;11.10;;;;;;;-0.60;100.00;100536.84;4977090;28;20274;-56
2022/11/20 03:55:05;;;;;;;14.03;11.63;;;;;;;-0.63;100.00;100547.06;4972164;28;20226;-57
2022/11/20 03:57:32;;;;;;;16.77;12.87;;;;;;;-0.61;100.00;100544.53;4973122;28;20229;-56
2022/11/20 03:59:59;;;;;;;15.37;11.43;;;;;;;-0.66;100.00;100534.03;4968150;28;20285;-56
2022/11/20 04:02:26;;;;;;;15.63;12.33;;;;;;;-0.65;100.00;100546.09;4984104;28;20290;-56
2022/11/20 04:04:53;;;;;;;12.93;10.63;;;;;;;-0.60;100.00;100534.25;4981813;28;20234;-55
2022/11/20 04:07:22;;;;;;;15.63;11.73;;;;;;;-0.61;100.00;100539.38;4979573;28;20799;-56
2022/11/20 04:09:48;;;;;;;16.13;12.60;;;;;;;-0.79;100.00;100547.25;4976510;28;20966;-55
2022/11/20 04:12:15;;;;;;;16.60;13.10;;;;;;;-0.72;100.00;100536.34;4983451;28;20288;-56
2022/11/20 04:14:42;;;;;;;20.30;11.37;;;;;;;-0.78;100.00;100536.09;4975277;28;20319;-55
2022/11/20 04:17:09;;;;;;;18.73;13.03;;;;;;;-0.84;100.00;100541.91;4984287;28;20244;-56
2022/11/20 04:19:39;;;;;;;15.20;11.67;;;;;;;-0.78;100.00;100536.09;4987741;28;20316;-56
2022/11/20 04:22:06;;;;;;;15.20;12.77;;;;;;;-0.88;100.00;100544.25;4984481;28;20744;-55
2022/11/20 04:24:34;;;;;;;18.93;13.20;;;;;;;-0.81;100.00;100542.03;4983583;28;20616;-56
2022/11/20 04:27:01;;;;;;;16.17;11.83;;;;;;;-0.80;100.00;100542.91;4978024;28;20841;-57
2022/11/20 04:29:27;;;;;;;13.23;11.83;;;;;;;-0.74;100.00;100543.13;4983325;28;20232;-56
2022/11/20 04:31:54;;;;;;;14.53;11.40;;;;;;;-0.60;100.00;100542.00;4982160;28;20789;-55
2022/11/20 04:34:21;;;;;;;15.67;11.27;;;;;;;-0.68;100.00;100539.94;4984445;28;20278;-55
2022/11/20 04:36:48;;;;;;;15.10;12.37;;;;;;;-0.81;100.00;100543.69;4987905;28;20264;-57
2022/11/20 04:39:16;;;;;;;15.73;12.80;;;;;;;-0.77;100.00;100533.59;4990304;28;20264;-56
2022/11/20 04:41:45;;;;;;;14.40;11.67;;;;;;;-0.74;100.00;100538.88;4978475;28;20232;-57
2022/11/20 04:44:12;;;;;;;16.23;11.57;;;;;;;-0.66;100.00;100541.78;4978092;28;20630;-56
2022/11/20 04:46:40;;;;;;;16.73;11.47;;;;;;;-0.70;100.00;100534.75;4981913;28;20249;-55
2022/11/20 04:49:07;;;;;;;18.30;12.47;;;;;;;-0.68;100.00;100527.94;4977388;28;20815;-56
2022/11/20 04:51:35;;;;;;;14.63;11.50;;;;;;;-0.62;100.00;100537.63;4986778;28;20224;-55
2022/11/20 04:54:02;;;;;;;14.90;11.67;;;;;;;-0.64;100.00;100529.81;4977884;28;20269;-55
2022/11/20 04:56:29;;;;;;;17.43;11.40;;;;;;;-0.65;100.00;100530.63;4981086;28;20638;-56
2022/11/20 04:59:01;;;;;;;19.50;13.30;;;;;;;-0.61;100.00;100531.63;4982595;28;20247;-56
2022/11/20 05:01:28;;;;;;;14.33;10.83;;;;;;;-0.56;100.00;100528.44;4987002;28;20284;-56
2022/11/20 05:03:55;;;;;;;20.97;12.77;;;;;;;-0.57;100.00;100520.63;4984932;28;20281;-55
2022/11/20 05:06:23;;;;;;;13.73;11.90;;;;;;;-0.57;100.00;100521.50;4980535;28;20230;-56
2022/11/20 05:08:50;;;;;;;14.60;11.17;;;;;;;-0.59;100.00;100517.13;4984907;28;20241;-57
2022/11/20 05:11:19;;;;;;;16.23;12.10;;;;;;;-0.57;100.00;100513.75;4980553;28;20660;-56
2022/11/20 05:13:46;;;;;;;14.47;11.10;;;;;;;-0.59;100.00;100509.41;4981727;28;20244;-56
2022/11/20 05:16:16;;;;;;;15.47;11.43;;;;;;;-0.62;100.00;100504.97;4980847;28;20267;-55
2022/11/20 05:18:43;;;;;;;14.27;11.37;;;;;;;-0.51;100.00;100505.41;4986191;28;20232;-56
2022/11/20 05:21:11;;;;;;;17.97;12.77;;;;;;;-0.43;100.00;100497.97;4977361;28;20226;-55
2022/11/20 05:23:38;;;;;;;15.90;11.97;;;;;;;-0.41;100.00;100496.34;4980078;28;20437;-55
2022/11/20 05:26:06;;;;;;;18.60;11.60;;;;;;;-0.48;100.00;100492.63;4970718;28;20340;-55
2022/11/20 05:28:33;;;;;;;14.67;11.33;;;;;;;-0.41;100.00;100486.03;4982433;28;20233;-56
2022/11/20 05:31:06;;;;;;;14.53;11.83;;;;;;;-0.41;100.00;100491.19;4977239;28;20259;-56
2022/11/20 05:33:35;;;;;;;11.83;9.73;;;;;;;-0.40;100.00;100501.53;4983368;28;20611;-56
2022/11/20 05:36:02;;;;;;;16.00;12.23;;;;;;;-0.30;100.00;100490.78;4984652;28;20245;-55
2022/11/20 05:38:29;;;;;;;16.30;11.93;;;;;;;-0.38;100.00;100491.31;4977666;28;20241;-55
2022/11/20 05:40:56;;;;;;;12.93;10.83;;;;;;;-0.41;100.00;100483.44;4977380;28;20232;-55
2022/11/20 05:43:23;;;;;;;16.13;11.97;;;;;;;-0.41;100.00;100493.75;4979332;28;20232;-56
2022/11/20 05:45:53;;;;;;;14.37;11.40;;;;;;;-0.42;100.00;100489.41;4981206;28;20251;-55
2022/11/20 05:48:20;;;;;;;15.20;11.17;;;;;;;-0.43;100.00;100490.22;4975589;28;20239;-55
2022/11/20 05:50:49;;;;;;;14.30;11.30;;;;;;;-0.49;100.00;100484.03;4975709;28;20233;-57
2022/11/20 05:53:15;;;;;;;18.23;12.10;;;;;;;-0.46;100.00;100478.09;4976927;28;20229;-56
2022/11/20 05:55:42;;;;;;;14.67;10.87;;;;;;;-0.42;100.00;100484.25;4980724;28;20244;-55
2022/11/20 05:58:09;;;;;;;14.13;10.80;;;;;;;-0.36;100.00;100479.34;4982324;28;20240;-54
2022/11/20 06:00:36;;;;;;;15.43;11.60;;;;;;;-0.39;100.00;100477.50;4979307;28;20229;-55
2022/11/20 06:03:03;;;;;;;16.17;11.77;;;;;;;-0.25;100.00;100485.78;4977842;28;20346;-56
2022/11/20 06:05:30;;;;;;;14.57;11.47;;;;;;;-0.26;100.00;100484.03;4979200;28;20284;-55
2022/11/20 06:07:58;;;;;;;14.27;10.77;;;;;;;-0.29;100.00;100483.91;4979213;28;20263;-56
2022/11/20 06:10:25;;;;;;;15.37;12.27;;;;;;;-0.22;100.00;100482.44;4978754;28;20236;-56
2022/11/20 06:12:52;;;;;;;15.40;10.70;;;;;;;-0.32;100.00;100481.22;4983436;28;20292;-56
2022/11/20 06:15:18;;;;;;;16.30;11.83;;;;;;;-0.37;100.00;100475.00;4975332;28;20245;-57
2022/11/20 06:17:45;;;;;;;14.57;10.80;;;;;;;-0.39;100.00;100474.06;4985205;28;20691;-56
2022/11/20 06:20:12;;;;;;;16.63;11.03;;;;;;;-0.40;100.00;100480.03;4971906;28;20258;-55
2022/11/20 06:22:39;;;;;;;14.97;10.97;;;;;;;-0.25;100.00;100478.03;4976992;28;20236;-55
2022/11/20 06:25:08;;;;;;;13.57;10.80;;;;;;;-0.26;100.00;100476.28;4973825;28;20728;-56
2022/11/20 06:27:35;;;;;;;11.97;9.87;;;;;;;-0.31;100.00;100477.84;4978186;28;20264;-56
2022/11/20 06:30:02;;;;;;;13.73;11.23;;;;;;;-0.29;100.00;100473.59;4981929;28;20238;-55
2022/11/20 06:32:29;;;;;;;13.17;11.33;;;;;;;-0.31;100.00;100476.13;4980934;28;20285;-55
2022/11/20 06:34:56;;;;;;;15.43;11.67;;;;;;;-0.30;100.00;100482.16;4974509;28;20237;-56
2022/11/20 06:37:23;;;;;;;13.73;10.33;;;;;;;-0.24;100.00;100479.81;4973543;28;20249;-55
2022/11/20 06:39:50;;;;;;;14.70;11.30;;;;;;;-0.30;100.00;100479.56;4975853;28;20353;-54
2022/11/20 06:42:18;;;;;;;13.93;10.43;;;;;;;-0.20;100.00;100484.28;4978972;28;20257;-56
2022/11/20 06:44:45;;;;;;;13.60;10.97;;;;;;;-0.23;100.00;100479.00;4978440;28;20319;-55
2022/11/20 06:47:12;;;;;;;14.73;11.77;;;;;;;-0.20;100.00;100475.66;4980804;28;20234;-55
2022/11/20 06:49:39;;;;;;;15.17;11.47;;;;;;;-0.23;100.00;100470.38;4975609;28;20235;-55
2022/11/20 06:52:06;;;;;;;15.97;10.80;;;;;;;-0.31;100.00;100465.81;4975300;28;20222;-55
2022/11/20 06:54:32;;;;;;;17.70;12.63;;;;;;;-0.33;100.00;100470.00;4982439;28;20771;-56
2022/11/20 06:56:59;;;;;;;14.43;11.90;;;;;;;-0.17;100.00;100465.47;4981438;28;20230;-56
2022/11/20 06:59:27;;;;;;;16.37;12.40;;;;;;;-0.29;100.00;100471.00;4978623;28;20234;-57
2022/11/20 07:01:54;;;;;;;18.67;11.83;;;;;;;-0.33;100.00;100466.56;4976419;28;20234;-56
2022/11/20 07:04:21;;;;;;;16.47;11.70;;;;;;;-0.37;100.00;100462.97;4986274;28;20256;-56
2022/11/20 07:06:49;;;;;;;14.50;10.67;;;;;;;-0.37;100.00;100465.56;4985453;28;20266;-56
2022/11/20 07:09:16;;;;;;;19.30;12.53;;;;;;;-0.38;100.00;100465.53;4981966;28;20223;-55
2022/11/20 07:11:42;;;;;;;16.33;11.67;;;;;;;-0.45;100.00;100468.69;4987424;28;20324;-57
2022/11/20 07:14:09;;;;;;;16.13;12.30;;;;;;;-0.51;100.00;100465.03;4982563;28;20296;-61
2022/11/20 07:16:37;;;;;;;19.17;11.97;;;;;;;-0.50;100.00;100469.34;4973396;28;20800;-55
2022/11/20 07:19:04;;;;;;;17.03;12.27;;;;;;;-0.56;100.00;100470.81;4978341;28;20311;-58
2022/11/20 07:21:31;;;;;;;15.40;11.73;;;;;;;-0.52;100.00;100465.84;4984250;28;20766;-55
2022/11/20 07:23:58;;;;;;;16.30;12.53;;;;;;;-0.58;100.00;100462.16;4979797;28;20233;-56
2022/11/20 07:26:25;;;;;;;16.57;12.30;;;;;;;-0.49;100.00;100468.56;4977234;28;20247;-56
2022/11/20 07:28:52;;;;;;;15.63;11.37;;;;;;;-0.51;100.00;100465.03;4981431;28;20237;-56
2022/11/20 07:31:18;;;;;;;16.67;12.30;;;;;;;-0.53;100.00;100466.69;4974485;28;20233;-57
2022/11/20 07:33:47;;;;;;;16.33;12.57;;;;;;;-0.46;100.00;100474.63;4978238;28;20257;-56
2022/11/20 07:36:13;;;;;;;18.23;12.20;;;;;;;-0.58;100.00;100465.59;4969566;28;20316;-55
2022/11/20 07:38:40;;;;;;;18.47;12.30;;;;;;;-0.54;100.00;100459.75;4977170;28;20254;-55
2022/11/20 07:41:07;;;;;;;16.00;12.40;;;;;;;-0.50;100.00;100466.78;4980483;28;20356;-56
2022/11/20 07:43:34;;;;;;;13.67;11.97;;;;;;;-0.52;100.00;100464.97;4983195;28;20236;-56
2022/11/20 07:46:01;;;;;;;14.90;12.17;;;;;;;-0.52;100.00;100465.84;4981713;28;20625;-56
2022/11/20 07:48:28;;;;;;;17.57;13.27;;;;;;;-0.47;100.00;100460.88;4983556;28;20229;-56
2022/11/20 07:50:56;;;;;;;17.80;13.30;;;;;;;-0.44;100.00;100454.97;4981553;28;20320;-56
2022/11/20 07:53:24;;;;;;;15.60;12.03;;;;;;;-0.53;100.00;100450.31;4974930;28;20289;-56
2022/11/20 07:55:52;;;;;;;18.70;13.07;;;;;;;-0.44;100.00;100450.69;4979289;28;20245;-55
2022/11/20 07:58:19;;;;;;;14.40;12.87;;;;;;;-0.40;100.00;100456.84;4979118;28;20236;-56
2022/11/20 08:00:46;;;;;;;20.40;14.27;;;;;;;-0.51;100.00;100465.03;4982483;28;20232;-56
2022/11/20 08:03:13;;;;;;;17.87;12.53;;;;;;;-0.60;100.00;100459.50;4981697;28;20319;-55
2022/11/20 08:05:40;;;;;;;18.97;13.17;;;;;;;-0.62;100.00;100456.00;4974939;28;20232;-57
2022/11/20 08:08:08;;;;;;;18.00;13.10;;;;;;;-0.60;100.00;100459.50;4980642;28;20235;-56
2022/11/20 08:10:35;;;;;;;14.47;12.23;;;;;;;-0.57;100.00;100454.47;4980094;28;20236;-56
2022/11/20 08:15:51;;;;;;;19.50;13.57;;;;;;;-0.60;100.00;100438.88;4974769;28;20380;-55
2022/11/20 08:18:18;;;;;;;18.60;12.73;;;;;;;-0.59;100.00;100444.94;4975617;28;20264;-55
2022/11/20 08:20:45;;;;;;;15.57;12.03;;;;;;;-0.58;100.00;100446.69;4987182;28;20784;-56
2022/11/20 08:23:14;;;;;;;17.37;12.93;;;;;;;-0.63;100.00;100449.09;4977434;28;20243;-55
2022/11/20 08:25:41;;;;;;;15.73;12.83;;;;;;;-0.63;100.00;100454.25;4978244;28;20238;-56
2022/11/20 08:28:08;;;;;;;16.63;12.90;;;;;;;-0.43;100.00;100451.56;4981442;28;20240;-55
2022/11/20 08:30:36;;;;;;;17.30;12.93;;;;;;;-0.56;100.00;100453.66;4979888;28;20257;-55
2022/11/20 08:33:05;;;;;;;17.23;12.87;;;;;;;-0.74;100.00;100447.75;4976635;28;20242;-56
2022/11/20 08:35:34;;;;;;;19.60;13.13;;;;;;;-0.70;100.00;100444.53;4982742;28;20310;-55
2022/11/20 08:38:00;;;;;;;16.83;12.40;;;;;;;-0.67;100.00;100433.44;4985389;28;20237;-54
2022/11/20 08:40:29;;;;;;;21.50;14.07;;;;;;;-0.67;100.00;100436.00;4979926;28;20306;-56
2022/11/20 08:42:55;;;;;;;17.10;12.30;;;;;;;-0.71;100.00;100435.00;4980511;28;20247;-56
2022/11/20 08:45:22;;;;;;;16.70;12.77;;;;;;;-0.70;100.00;100439.38;4980856;28;20254;-56
2022/11/20 08:47:49;;;;;;;18.40;13.27;;;;;;;-0.65;100.00;100439.53;4983035;28;20240;-55
2022/11/20 08:50:17;;;;;;;21.37;13.67;;;;;;;-0.65;100.00;100424.06;4983696;28;20313;-55
2022/11/20 08:52:44;;;;;;;18.13;12.53;;;;;;;-0.51;100.00;100439.25;4981156;28;20293;-55
2022/11/20 08:55:11;;;;;;;14.73;11.77;;;;;;;-0.52;100.00;100452.97;4984069;28;20237;-54
2022/11/20 08:57:39;;;;;;;14.77;12.57;;;;;;;-0.53;100.00;100451.22;4982237;28;20234;-55
2022/11/20 09:00:09;;;;;;;17.80;11.77;;;;;;;-0.44;100.00;100452.38;4972162;28;20232;-55
2022/11/20 09:02:36;;;;;;;17.70;13.20;;;;;;;-0.27;100.00;100439.31;4981600;28;20614;-55
2022/11/20 09:05:03;;;;;;;18.17;11.77;;;;;;;-0.27;100.00;100454.78;4981551;28;20660;-57
2022/11/20 09:07:30;;;;;;;17.67;12.63;;;;;;;-0.38;100.00;100450.03;4984419;28;20237;-56
2022/11/20 09:09:57;;;;;;;17.47;13.53;;;;;;;-0.46;100.00;100441.13;4979519;28;20237;-56
2022/11/20 09:12:24;;;;;;;20.47;13.70;;;;;;;-0.50;100.00;100442.69;4981742;28;20241;-55
2022/11/20 09:14:53;;;;;;;16.87;12.43;;;;;;;-0.37;100.00;100446.63;4978123;28;20364;-56
2022/11/20 09:17:20;;;;;;;15.23;12.00;;;;;;;-0.38;100.00;100444.88;4979089;28;20360;-57
2022/11/20 09:19:47;;;;;;;20.10;12.97;;;;;;;-0.40;100.00;100446.50;4986326;28;20233;-55
2022/11/20 09:22:14;;;;;;;17.57;13.33;;;;;;;-0.50;100.00;100456.47;4980408;28;20707;-55
2022/11/20 09:24:42;;;;;;;17.77;13.10;;;;;;;-0.47;100.00;100454.84;4977798;28;20718;-56
2022/11/20 09:27:09;;;;;;;17.37;12.90;;;;;;;-0.52;100.00;100458.13;4976421;28;20256;-55
2022/11/20 09:29:36;;;;;;;17.43;12.73;;;;;;;-0.51;100.00;100454.72;4969185;28;20277;-55
2022/11/20 09:32:05;;;;;;;17.67;13.60;;;;;;;-0.44;100.00;100445.53;4978880;28;20255;-56
2022/11/20 09:34:32;;;;;;;17.93;13.23;;;;;;;-0.34;100.00;100451.91;4977962;28;20233;-56
2022/11/20 09:36:59;;;;;;;17.60;13.93;;;;;;;-0.32;100.00;100451.13;4972123;28;20321;-55
2022/11/20 09:39:27;;;;;;;18.30;13.37;;;;;;;-0.28;100.00;100453.03;4986628;28;20250;-56
2022/11/20 09:42:24;;;;;;;20.40;12.97;;;;;;;-0.30;100.00;100448.63;4985358;28;20236;-56
2022/11/20 09:45:03;;;;;;;14.10;10.53;;;;;;;-0.18;100.00;100443.91;4979996;28;20697;-56
2022/11/20 09:47:43;;;;;;;15.80;13.07;;;;;;;-0.16;100.00;100447.44;4984871;28;20241;-56
2022/11/20 09:50:24;;;;;;;18.83;13.77;;;;;;;-0.16;100.00;100442.28;4979385;28;20884;-55
2022/11/20 09:53:02;;;;;;;15.57;11.80;;;;;;;-0.12;100.00;100432.97;4979234;28;20314;-55
2022/11/20 09:55:30;;;;;;;17.97;12.23;;;;;;;-0.06;100.00;100433.19;4971511;28;20296;-55
2022/11/20 09:57:58;;;;;;;17.37;13.67;;;;;;;0.05;100.00;100438.75;4979017;28;20241;-55
2022/11/20 10:00:25;;;;;;;19.07;11.60;;;;;;;0.10;100.00;100439.78;4984408;28;20336;-55
2022/11/20 10:02:56;;;;;;;17.50;12.07;;;;;;;-0.15;100.00;100436.28;4980629;28;20236;-55
2022/11/20 10:05:26;;;;;;;15.60;10.93;;;;;;;-0.22;100.00;100431.72;4977269;28;20288;-56
2022/11/20 10:07:56;;;;;;;18.90;13.27;;;;;;;-0.14;100.00;100438.06;4977703;28;20241;-56
2022/11/20 10:10:37;;;;;;;21.53;13.33;;;;;;;-0.18;100.00;100433.59;4977049;28;20327;-55
2022/11/20 10:13:18;;;;;;;17.30;11.83;;;;;;;-0.21;100.00;100427.44;4976494;28;20387;-56
2022/11/20 10:15:53;;;;;;;15.73;12.57;;;;;;;-0.20;100.00;100430.09;4985848;28;20268;-55
2022/11/20 10:18:35;;;;;;;19.47;12.80;;;;;;;-0.18;100.00;100428.44;4980242;28;20228;-59
2022/11/20 10:21:06;;;;;;;18.53;12.70;;;;;;;-0.17;100.00;100422.47;4980563;28;20244;-56
2022/11/20 10:23:52;;;;;;;17.47;11.80;;;;;;;-0.27;100.00;100420.38;4984709;28;20238;-56
2022/11/20 10:26:24;;;;;;;16.47;12.00;;;;;;;-0.17;100.00;100414.75;4978029;28;20237;-55
2022/11/20 10:29:02;;;;;;;16.27;12.20;;;;;;;-0.19;100.00;100408.63;4977012;28;20237;-56
2022/11/20 10:31:33;;;;;;;17.17;12.43;;;;;;;-0.16;100.00;100411.31;4973599;28;20229;-55
2022/11/20 10:34:04;;;;;;;19.60;13.17;;;;;;;-0.14;100.00;100407.13;4981148;28;20237;-55
2022/11/20 10:36:36;;;;;;;17.33;12.90;;;;;;;-0.12;100.00;100402.88;4974876;28;20721;-55
2022/11/20 10:39:07;;;;;;;17.07;12.40;;;;;;;-0.01;100.00;100395.50;4978576;28;20519;-56
2022/11/20 10:41:40;;;;;;;17.90;13.93;;;;;;;-0.07;100.00;100396.19;4982544;28;20614;-56
2022/11/20 10:44:12;;;;;;;16.10;11.70;;;;;;;0.08;100.00;100394.97;4967154;28;20680;-55
2022/11/20 10:46:41;;;;;;;15.83;11.80;;;;;;;0.21;100.00;100400.63;4975596;28;20799;-56
2022/11/20 10:49:19;;;;;;;17.23;12.87;;;;;;;0.11;100.00;100400.25;4980751;28;20256;-57
2022/11/20 10:51:55;;;;;;;18.97;12.77;;;;;;;-0.01;100.00;100391.22;4980102;28;20238;-56
2022/11/20 10:54:28;;;;;;;14.83;11.43;;;;;;;0.08;100.00;100394.97;4976616;28;20753;-55
2022/11/20 10:57:00;;;;;;;17.03;12.27;;;;;;;0.08;100.00;100397.56;4982376;28;20662;-56
2022/11/20 10:59:37;;;;;;;18.63;12.67;;;;;;;0.14;100.00;100390.91;4983324;28;20854;-56
2022/11/20 11:02:16;;;;;;;16.50;12.23;;;;;;;0.27;100.00;100394.78;4978854;28;20245;-55
2022/11/20 11:04:47;;;;;;;19.57;12.07;;;;;;;0.32;100.00;100394.97;4978188;28;20307;-55
2022/11/20 11:07:16;;;;;;;17.13;11.43;;;;;;;0.45;100.00;100387.66;4979302;28;20290;-56
2022/11/20 11:09:45;;;;;;;16.63;11.93;;;;;;;0.50;100.00;100395.59;4976704;28;20734;-56
2022/11/20 11:12:12;;;;;;;15.50;12.00;;;;;;;0.63;100.00;100389.09;4975915;28;20260;-57